X  CloseMetar Aviation Weather Data     YMAV Avalon

Temperature

10°C Temperature

10°C Dewpoint

100% Humidity



Wind

11 KM/H

 7 MPH

 3 M/S

 6 KTS



250°
West South
West
Current Conditions

Mostly Scattered Clouds Mostly Scattered Clouds
Pressure 1030.92 (hPa) - 30.44 (in)
Visibility 6.2 (mi) - 10 (km)
Airport
Airport-code YMAV

Location Avalon 14 (km)

Metar:
YMAV 061130Z AUTO 25006KT 9999 // SCT025 OVC033 10/10 Q1031

Time: 06-07-2020 21:30